sensor_id;sensor_type;location;lat;lon;timestamp;P1;durP1;ratioP1;P2;durP2;ratioP2
16634;SDS011;8431;52.458;9.998;2023-05-10T00:01:44;7.43;;;6.80;;
16634;SDS011;8431;52.458;9.998;2023-05-10T00:04:11;7.03;;;6.45;;
16634;SDS011;8431;52.458;9.998;2023-05-10T00:06:38;7.75;;;6.00;;
16634;SDS011;8431;52.458;9.998;2023-05-10T00:09:06;6.72;;;6.22;;
16634;SDS011;8431;52.458;9.998;2023-05-10T00:11:35;7.22;;;6.72;;
16634;SDS011;8431;52.458;9.998;2023-05-10T00:14:02;6.80;;;6.40;;
16634;SDS011;8431;52.458;9.998;2023-05-10T00:16:29;8.55;;;6.88;;
16634;SDS011;8431;52.458;9.998;2023-05-10T00:18:56;7.15;;;6.65;;
16634;SDS011;8431;52.458;9.998;2023-05-10T00:21:23;6.40;;;6.00;;
16634;SDS011;8431;52.458;9.998;2023-05-10T00:23:50;6.53;;;6.03;;
16634;SDS011;8431;52.458;9.998;2023-05-10T00:26:17;7.07;;;6.57;;
16634;SDS011;8431;52.458;9.998;2023-05-10T00:28:46;6.40;;;5.90;;
16634;SDS011;8431;52.458;9.998;2023-05-10T00:31:13;6.75;;;6.25;;
16634;SDS011;8431;52.458;9.998;2023-05-10T00:33:40;6.72;;;6.22;;
16634;SDS011;8431;52.458;9.998;2023-05-10T00:38:46;7.03;;;6.43;;
16634;SDS011;8431;52.458;9.998;2023-05-10T00:41:13;6.50;;;6.10;;
16634;SDS011;8431;52.458;9.998;2023-05-10T00:43:40;7.35;;;6.63;;
16634;SDS011;8431;52.458;9.998;2023-05-10T00:46:09;6.53;;;6.05;;
16634;SDS011;8431;52.458;9.998;2023-05-10T00:48:36;7.18;;;5.95;;
16634;SDS011;8431;52.458;9.998;2023-05-10T00:51:04;8.18;;;6.70;;
16634;SDS011;8431;52.458;9.998;2023-05-10T00:53:31;6.38;;;5.90;;
16634;SDS011;8431;52.458;9.998;2023-05-10T00:56:00;7.35;;;6.82;;
16634;SDS011;8431;52.458;9.998;2023-05-10T00:58:28;6.88;;;6.15;;
16634;SDS011;8431;52.458;9.998;2023-05-10T01:00:56;6.28;;;5.88;;
16634;SDS011;8431;52.458;9.998;2023-05-10T01:03:25;6.53;;;6.13;;
16634;SDS011;8431;52.458;9.998;2023-05-10T01:05:52;6.63;;;6.13;;
16634;SDS011;8431;52.458;9.998;2023-05-10T01:08:20;5.82;;;5.43;;
16634;SDS011;8431;52.458;9.998;2023-05-10T01:10:47;7.00;;;6.40;;
16634;SDS011;8431;52.458;9.998;2023-05-10T01:13:16;9.57;;;5.90;;
16634;SDS011;8431;52.458;9.998;2023-05-10T01:15:49;6.85;;;6.15;;
16634;SDS011;8431;52.458;9.998;2023-05-10T01:18:16;6.53;;;6.00;;
16634;SDS011;8431;52.458;9.998;2023-05-10T01:20:48;6.60;;;6.00;;
16634;SDS011;8431;52.458;9.998;2023-05-10T01:23:35;6.50;;;6.10;;
16634;SDS011;8431;52.458;9.998;2023-05-10T01:32:28;7.45;;;6.95;;
16634;SDS011;8431;52.458;9.998;2023-05-10T01:35:03;6.53;;;6.13;;
16634;SDS011;8431;52.458;9.998;2023-05-10T01:37:40;6.72;;;6.22;;
16634;SDS011;8431;52.458;9.998;2023-05-10T01:40:14;6.75;;;6.15;;
16634;SDS011;8431;52.458;9.998;2023-05-10T01:42:50;6.78;;;6.28;;
16634;SDS011;8431;52.458;9.998;2023-05-10T01:45:24;7.72;;;7.03;;
16634;SDS011;8431;52.458;9.998;2023-05-10T01:48:01;6.70;;;6.20;;
16634;SDS011;8431;52.458;9.998;2023-05-10T01:50:32;7.10;;;6.53;;
16634;SDS011;8431;52.458;9.998;2023-05-10T01:53:02;7.40;;;6.85;;
16634;SDS011;8431;52.458;9.998;2023-05-10T01:55:33;7.35;;;6.70;;
16634;SDS011;8431;52.458;9.998;2023-05-10T01:58:03;6.82;;;6.40;;
16634;SDS011;8431;52.458;9.998;2023-05-10T02:00:34;6.90;;;6.40;;
16634;SDS011;8431;52.458;9.998;2023-05-10T02:03:04;7.45;;;6.45;;
16634;SDS011;8431;52.458;9.998;2023-05-10T02:05:34;6.72;;;6.32;;
16634;SDS011;8431;52.458;9.998;2023-05-10T02:08:03;7.32;;;6.63;;
16634;SDS011;8431;52.458;9.998;2023-05-10T02:10:33;6.90;;;6.50;;
16634;SDS011;8431;52.458;9.998;2023-05-10T02:13:01;7.55;;;6.95;;
16634;SDS011;8431;52.458;9.998;2023-05-10T02:15:29;6.85;;;6.28;;
16634;SDS011;8431;52.458;9.998;2023-05-10T02:17:57;6.72;;;6.25;;
16634;SDS011;8431;52.458;9.998;2023-05-10T02:20:27;7.40;;;6.80;;
16634;SDS011;8431;52.458;9.998;2023-05-10T02:22:57;8.30;;;7.22;;
16634;SDS011;8431;52.458;9.998;2023-05-10T02:25:25;8.20;;;6.43;;
16634;SDS011;8431;52.458;9.998;2023-05-10T02:27:55;6.70;;;6.30;;
16634;SDS011;8431;52.458;9.998;2023-05-10T02:30:23;7.22;;;6.72;;
16634;SDS011;8431;52.458;9.998;2023-05-10T02:32:52;6.90;;;6.30;;
16634;SDS011;8431;52.458;9.998;2023-05-10T02:35:19;7.18;;;6.57;;
16634;SDS011;8431;52.458;9.998;2023-05-10T02:37:48;6.95;;;6.38;;
16634;SDS011;8431;52.458;9.998;2023-05-10T02:40:18;7.35;;;6.65;;
16634;SDS011;8431;52.458;9.998;2023-05-10T02:42:47;9.48;;;7.53;;
16634;SDS011;8431;52.458;9.998;2023-05-10T02:45:19;7.00;;;6.40;;
16634;SDS011;8431;52.458;9.998;2023-05-10T02:47:49;7.43;;;6.50;;
16634;SDS011;8431;52.458;9.998;2023-05-10T02:50:16;7.18;;;6.70;;
16634;SDS011;8431;52.458;9.998;2023-05-10T02:52:44;7.38;;;6.68;;
16634;SDS011;8431;52.458;9.998;2023-05-10T02:55:15;7.25;;;6.75;;
16634;SDS011;8431;52.458;9.998;2023-05-10T02:57:46;7.05;;;6.43;;
16634;SDS011;8431;52.458;9.998;2023-05-10T03:00:18;8.70;;;6.43;;
16634;SDS011;8431;52.458;9.998;2023-05-10T03:02:45;7.47;;;6.80;;
16634;SDS011;8431;52.458;9.998;2023-05-10T03:05:12;7.53;;;6.82;;
16634;SDS011;8431;52.458;9.998;2023-05-10T03:07:39;6.90;;;6.30;;
16634;SDS011;8431;52.458;9.998;2023-05-10T03:10:07;7.75;;;7.03;;
16634;SDS011;8431;52.458;9.998;2023-05-10T03:12:41;7.13;;;6.63;;
16634;SDS011;8431;52.458;9.998;2023-05-10T03:15:21;7.40;;;6.90;;
16634;SDS011;8431;52.458;9.998;2023-05-10T03:17:55;6.97;;;6.47;;
16634;SDS011;8431;52.458;9.998;2023-05-10T03:20:29;7.00;;;6.50;;
16634;SDS011;8431;52.458;9.998;2023-05-10T03:23:02;7.22;;;6.63;;
16634;SDS011;8431;52.458;9.998;2023-05-10T03:25:47;7.20;;;6.60;;
16634;SDS011;8431;52.458;9.998;2023-05-10T03:28:17;7.30;;;6.63;;
16634;SDS011;8431;52.458;9.998;2023-05-10T03:30:45;6.40;;;6.03;;
16634;SDS011;8431;52.458;9.998;2023-05-10T03:33:13;7.60;;;7.00;;
16634;SDS011;8431;52.458;9.998;2023-05-10T03:35:40;7.13;;;6.60;;
16634;SDS011;8431;52.458;9.998;2023-05-10T03:38:09;6.93;;;6.50;;
16634;SDS011;8431;52.458;9.998;2023-05-10T03:40:36;7.10;;;6.70;;
16634;SDS011;8431;52.458;9.998;2023-05-10T03:43:03;7.30;;;6.80;;
16634;SDS011;8431;52.458;9.998;2023-05-10T03:45:31;7.25;;;6.75;;
16634;SDS011;8431;52.458;9.998;2023-05-10T03:47:58;7.28;;;6.68;;
16634;SDS011;8431;52.458;9.998;2023-05-10T03:50:25;7.53;;;6.95;;
16634;SDS011;8431;52.458;9.998;2023-05-10T03:52:52;7.03;;;6.53;;
16634;SDS011;8431;52.458;9.998;2023-05-10T03:55:19;7.47;;;6.90;;
16634;SDS011;8431;52.458;9.998;2023-05-10T03:57:47;7.07;;;6.45;;
16634;SDS011;8431;52.458;9.998;2023-05-10T04:00:14;7.65;;;7.05;;
16634;SDS011;8431;52.458;9.998;2023-05-10T04:02:43;6.97;;;6.28;;
16634;SDS011;8431;52.458;9.998;2023-05-10T04:05:10;7.15;;;6.55;;
16634;SDS011;8431;52.458;9.998;2023-05-10T04:07:38;8.73;;;7.22;;
16634;SDS011;8431;52.458;9.998;2023-05-10T04:10:05;7.35;;;6.75;;
16634;SDS011;8431;52.458;9.998;2023-05-10T04:12:33;7.93;;;7.30;;
16634;SDS011;8431;52.458;9.998;2023-05-10T04:15:00;7.43;;;6.75;;
16634;SDS011;8431;52.458;9.998;2023-05-10T04:17:27;7.68;;;6.90;;
16634;SDS011;8431;52.458;9.998;2023-05-10T04:19:55;7.57;;;6.85;;
16634;SDS011;8431;52.458;9.998;2023-05-10T04:22:22;6.82;;;6.43;;
16634;SDS011;8431;52.458;9.998;2023-05-10T04:24:49;6.80;;;6.30;;
16634;SDS011;8431;52.458;9.998;2023-05-10T04:27:16;7.05;;;6.45;;
16634;SDS011;8431;52.458;9.998;2023-05-10T04:29:43;6.50;;;6.00;;
16634;SDS011;8431;52.458;9.998;2023-05-10T04:32:10;7.60;;;6.90;;
16634;SDS011;8431;52.458;9.998;2023-05-10T04:34:37;7.80;;;7.22;;
16634;SDS011;8431;52.458;9.998;2023-05-10T04:37:06;7.07;;;6.43;;
16634;SDS011;8431;52.458;9.998;2023-05-10T04:39:33;7.75;;;7.05;;
16634;SDS011;8431;52.458;9.998;2023-05-10T04:42:00;7.55;;;6.80;;
16634;SDS011;8431;52.458;9.998;2023-05-10T04:44:28;7.63;;;7.00;;
16634;SDS011;8431;52.458;9.998;2023-05-10T04:46:55;7.53;;;6.85;;
16634;SDS011;8431;52.458;9.998;2023-05-10T04:49:22;7.68;;;7.15;;
16634;SDS011;8431;52.458;9.998;2023-05-10T04:51:49;8.15;;;7.55;;
16634;SDS011;8431;52.458;9.998;2023-05-10T04:54:18;8.10;;;7.45;;
16634;SDS011;8431;52.458;9.998;2023-05-10T04:56:45;8.30;;;7.60;;
16634;SDS011;8431;52.458;9.998;2023-05-10T04:59:12;7.88;;;6.90;;
16634;SDS011;8431;52.458;9.998;2023-05-10T05:01:39;7.40;;;6.90;;
16634;SDS011;8431;52.458;9.998;2023-05-10T05:04:06;7.93;;;7.15;;
16634;SDS011;8431;52.458;9.998;2023-05-10T05:06:33;7.95;;;7.20;;
16634;SDS011;8431;52.458;9.998;2023-05-10T05:09:00;7.90;;;6.93;;
16634;SDS011;8431;52.458;9.998;2023-05-10T05:11:28;7.50;;;6.80;;
16634;SDS011;8431;52.458;9.998;2023-05-10T05:13:56;7.90;;;7.15;;
16634;SDS011;8431;52.458;9.998;2023-05-10T05:16:24;7.43;;;6.80;;
16634;SDS011;8431;52.458;9.998;2023-05-10T05:18:51;7.40;;;6.90;;
16634;SDS011;8431;52.458;9.998;2023-05-10T05:21:19;7.20;;;6.70;;
16634;SDS011;8431;52.458;9.998;2023-05-10T05:23:46;7.97;;;7.28;;
16634;SDS011;8431;52.458;9.998;2023-05-10T05:26:13;7.43;;;6.82;;
16634;SDS011;8431;52.458;9.998;2023-05-10T05:28:42;7.78;;;7.10;;
16634;SDS011;8431;52.458;9.998;2023-05-10T05:31:09;7.10;;;6.50;;
16634;SDS011;8431;52.458;9.998;2023-05-10T05:33:36;7.90;;;7.30;;
16634;SDS011;8431;52.458;9.998;2023-05-10T05:36:04;8.80;;;8.00;;
16634;SDS011;8431;52.458;9.998;2023-05-10T05:38:31;8.15;;;7.45;;
16634;SDS011;8431;52.458;9.998;2023-05-10T05:40:58;8.00;;;7.25;;
16634;SDS011;8431;52.458;9.998;2023-05-10T05:43:25;7.78;;;7.07;;
16634;SDS011;8431;52.458;9.998;2023-05-10T05:45:54;8.32;;;7.63;;
16634;SDS011;8431;52.458;9.998;2023-05-10T05:48:23;9.27;;;7.35;;
16634;SDS011;8431;52.458;9.998;2023-05-10T05:50:53;7.78;;;7.03;;
16634;SDS011;8431;52.458;9.998;2023-05-10T05:53:21;9.05;;;8.25;;
16634;SDS011;8431;52.458;9.998;2023-05-10T05:55:51;8.20;;;7.50;;
16634;SDS011;8431;52.458;9.998;2023-05-10T05:58:19;9.10;;;8.25;;
16634;SDS011;8431;52.458;9.998;2023-05-10T06:00:46;8.55;;;7.68;;
16634;SDS011;8431;52.458;9.998;2023-05-10T06:03:15;8.52;;;7.93;;
16634;SDS011;8431;52.458;9.998;2023-05-10T06:05:42;9.18;;;8.23;;
16634;SDS011;8431;52.458;9.998;2023-05-10T06:08:08;8.80;;;8.00;;
16634;SDS011;8431;52.458;9.998;2023-05-10T06:10:36;8.10;;;7.53;;
16634;SDS011;8431;52.458;9.998;2023-05-10T06:13:03;8.68;;;7.90;;
16634;SDS011;8431;52.458;9.998;2023-05-10T06:18:00;8.77;;;7.97;;
16634;SDS011;8431;52.458;9.998;2023-05-10T06:20:28;7.70;;;7.00;;
16634;SDS011;8431;52.458;9.998;2023-05-10T06:22:56;8.63;;;7.88;;
16634;SDS011;8431;52.458;9.998;2023-05-10T06:25:23;8.63;;;7.90;;
16634;SDS011;8431;52.458;9.998;2023-05-10T06:27:50;9.40;;;8.70;;
16634;SDS011;8431;52.458;9.998;2023-05-10T06:30:22;9.10;;;8.40;;
16634;SDS011;8431;52.458;9.998;2023-05-10T06:32:52;8.98;;;8.27;;
16634;SDS011;8431;52.458;9.998;2023-05-10T06:35:19;9.68;;;8.18;;
16634;SDS011;8431;52.458;9.998;2023-05-10T06:37:48;9.50;;;8.70;;
16634;SDS011;8431;52.458;9.998;2023-05-10T06:40:15;8.93;;;8.23;;
16634;SDS011;8431;52.458;9.998;2023-05-10T06:42:43;8.60;;;7.95;;
16634;SDS011;8431;52.458;9.998;2023-05-10T06:45:11;9.10;;;8.25;;
16634;SDS011;8431;52.458;9.998;2023-05-10T06:47:38;9.00;;;8.20;;
16634;SDS011;8431;52.458;9.998;2023-05-10T06:50:06;9.13;;;8.43;;
16634;SDS011;8431;52.458;9.998;2023-05-10T06:52:33;8.88;;;8.25;;
16634;SDS011;8431;52.458;9.998;2023-05-10T06:55:02;8.95;;;8.35;;
16634;SDS011;8431;52.458;9.998;2023-05-10T06:57:29;8.70;;;8.00;;
16634;SDS011;8431;52.458;9.998;2023-05-10T06:59:56;9.40;;;8.70;;
16634;SDS011;8431;52.458;9.998;2023-05-10T07:02:23;8.65;;;8.13;;
16634;SDS011;8431;52.458;9.998;2023-05-10T07:04:51;8.73;;;8.00;;
16634;SDS011;8431;52.458;9.998;2023-05-10T07:07:18;9.02;;;8.40;;
16634;SDS011;8431;52.458;9.998;2023-05-10T07:09:45;9.02;;;8.32;;
16634;SDS011;8431;52.458;9.998;2023-05-10T07:12:13;9.70;;;8.07;;
16634;SDS011;8431;52.458;9.998;2023-05-10T07:14:40;8.77;;;8.18;;
16634;SDS011;8431;52.458;9.998;2023-05-10T07:17:07;8.77;;;8.07;;
16634;SDS011;8431;52.458;9.998;2023-05-10T07:19:35;8.30;;;7.70;;
16634;SDS011;8431;52.458;9.998;2023-05-10T07:22:02;8.40;;;7.70;;
16634;SDS011;8431;52.458;9.998;2023-05-10T07:24:29;9.50;;;8.70;;
16634;SDS011;8431;52.458;9.998;2023-05-10T07:26:56;9.15;;;8.15;;
16634;SDS011;8431;52.458;9.998;2023-05-10T07:29:24;8.57;;;7.93;;
16634;SDS011;8431;52.458;9.998;2023-05-10T07:31:54;9.27;;;8.57;;
16634;SDS011;8431;52.458;9.998;2023-05-10T07:37:06;8.57;;;7.70;;
16634;SDS011;8431;52.458;9.998;2023-05-10T07:39:34;9.50;;;8.60;;
16634;SDS011;8431;52.458;9.998;2023-05-10T07:42:01;8.88;;;8.27;;
16634;SDS011;8431;52.458;9.998;2023-05-10T07:44:29;8.90;;;8.18;;
16634;SDS011;8431;52.458;9.998;2023-05-10T07:46:56;8.73;;;7.93;;
16634;SDS011;8431;52.458;9.998;2023-05-10T07:49:23;8.70;;;8.10;;
16634;SDS011;8431;52.458;9.998;2023-05-10T07:51:50;8.02;;;7.32;;
16634;SDS011;8431;52.458;9.998;2023-05-10T07:54:17;7.45;;;6.85;;
16634;SDS011;8431;52.458;9.998;2023-05-10T07:56:44;8.10;;;7.50;;
16634;SDS011;8431;52.458;9.998;2023-05-10T07:59:14;8.00;;;7.40;;
16634;SDS011;8431;52.458;9.998;2023-05-10T08:01:44;8.30;;;7.50;;
16634;SDS011;8431;52.458;9.998;2023-05-10T08:04:11;7.97;;;7.38;;
16634;SDS011;8431;52.458;9.998;2023-05-10T08:06:38;7.70;;;7.00;;
16634;SDS011;8431;52.458;9.998;2023-05-10T08:09:05;7.63;;;7.03;;
16634;SDS011;8431;52.458;9.998;2023-05-10T08:11:32;7.30;;;6.72;;
16634;SDS011;8431;52.458;9.998;2023-05-10T08:14:00;8.05;;;7.45;;
16634;SDS011;8431;52.458;9.998;2023-05-10T08:16:30;6.82;;;6.35;;
16634;SDS011;8431;52.458;9.998;2023-05-10T08:18:58;7.00;;;6.50;;
16634;SDS011;8431;52.458;9.998;2023-05-10T08:21:25;7.45;;;6.45;;
16634;SDS011;8431;52.458;9.998;2023-05-10T08:23:52;7.13;;;6.43;;
16634;SDS011;8431;52.458;9.998;2023-05-10T08:26:19;7.43;;;6.93;;
16634;SDS011;8431;52.458;9.998;2023-05-10T08:28:47;7.22;;;6.70;;
16634;SDS011;8431;52.458;9.998;2023-05-10T08:31:14;7.28;;;6.55;;
16634;SDS011;8431;52.458;9.998;2023-05-10T08:33:41;7.30;;;6.78;;
16634;SDS011;8431;52.458;9.998;2023-05-10T08:36:10;7.28;;;6.68;;
16634;SDS011;8431;52.458;9.998;2023-05-10T08:38:39;7.68;;;7.07;;
16634;SDS011;8431;52.458;9.998;2023-05-10T08:41:06;7.63;;;6.82;;
16634;SDS011;8431;52.458;9.998;2023-05-10T08:43:33;7.40;;;6.63;;
16634;SDS011;8431;52.458;9.998;2023-05-10T08:46:02;6.50;;;5.97;;
16634;SDS011;8431;52.458;9.998;2023-05-10T08:48:33;7.15;;;6.55;;
16634;SDS011;8431;52.458;9.998;2023-05-10T08:51:01;6.20;;;5.70;;
16634;SDS011;8431;52.458;9.998;2023-05-10T08:53:31;5.43;;;5.03;;
16634;SDS011;8431;52.458;9.998;2023-05-10T08:56:01;5.65;;;5.25;;
16634;SDS011;8431;52.458;9.998;2023-05-10T08:58:29;5.30;;;4.88;;
16634;SDS011;8431;52.458;9.998;2023-05-10T09:00:56;4.90;;;4.60;;
16634;SDS011;8431;52.458;9.998;2023-05-10T09:03:25;4.80;;;4.40;;
16634;SDS011;8431;52.458;9.998;2023-05-10T09:05:52;4.40;;;4.18;;
16634;SDS011;8431;52.458;9.998;2023-05-10T09:08:20;5.07;;;4.30;;
16634;SDS011;8431;52.458;9.998;2023-05-10T09:10:52;3.83;;;3.63;;
16634;SDS011;8431;52.458;9.998;2023-05-10T09:13:19;3.83;;;3.53;;
16634;SDS011;8431;52.458;9.998;2023-05-10T09:15:48;3.72;;;3.53;;
16634;SDS011;8431;52.458;9.998;2023-05-10T09:18:15;3.63;;;3.33;;
16634;SDS011;8431;52.458;9.998;2023-05-10T09:20:42;4.07;;;3.78;;
16634;SDS011;8431;52.458;9.998;2023-05-10T09:23:09;3.60;;;3.40;;
16634;SDS011;8431;52.458;9.998;2023-05-10T09:25:36;4.43;;;4.05;;
16634;SDS011;8431;52.458;9.998;2023-05-10T09:28:07;3.72;;;3.53;;
16634;SDS011;8431;52.458;9.998;2023-05-10T09:30:35;3.90;;;3.70;;
16634;SDS011;8431;52.458;9.998;2023-05-10T09:33:02;3.80;;;3.50;;
16634;SDS011;8431;52.458;9.998;2023-05-10T09:35:30;2.92;;;2.83;;
16634;SDS011;8431;52.458;9.998;2023-05-10T09:37:59;4.18;;;3.97;;
16634;SDS011;8431;52.458;9.998;2023-05-10T09:40:28;3.03;;;2.92;;
16634;SDS011;8431;52.458;9.998;2023-05-10T09:42:56;2.70;;;2.60;;
16634;SDS011;8431;52.458;9.998;2023-05-10T09:45:25;2.92;;;2.83;;
16634;SDS011;8431;52.458;9.998;2023-05-10T09:47:53;3.05;;;2.90;;
16634;SDS011;8431;52.458;9.998;2023-05-10T09:50:20;2.72;;;2.63;;
16634;SDS011;8431;52.458;9.998;2023-05-10T09:52:48;5.45;;;3.22;;
16634;SDS011;8431;52.458;9.998;2023-05-10T09:55:17;3.20;;;2.97;;
16634;SDS011;8431;52.458;9.998;2023-05-10T09:57:46;2.90;;;2.80;;
16634;SDS011;8431;52.458;9.998;2023-05-10T10:00:17;3.15;;;3.05;;
16634;SDS011;8431;52.458;9.998;2023-05-10T10:02:53;3.00;;;2.90;;
16634;SDS011;8431;52.458;9.998;2023-05-10T10:05:24;2.65;;;2.55;;
16634;SDS011;8431;52.458;9.998;2023-05-10T10:07:55;2.75;;;2.58;;
16634;SDS011;8431;52.458;9.998;2023-05-10T10:10:23;3.20;;;3.10;;
16634;SDS011;8431;52.458;9.998;2023-05-10T10:12:50;3.03;;;2.92;;
16634;SDS011;8431;52.458;9.998;2023-05-10T10:15:17;2.75;;;2.65;;
16634;SDS011;8431;52.458;9.998;2023-05-10T10:17:45;3.15;;;2.95;;
16634;SDS011;8431;52.458;9.998;2023-05-10T10:20:14;2.97;;;2.88;;
16634;SDS011;8431;52.458;9.998;2023-05-10T10:22:41;3.33;;;3.22;;
16634;SDS011;8431;52.458;9.998;2023-05-10T10:25:10;3.03;;;2.83;;
16634;SDS011;8431;52.458;9.998;2023-05-10T10:27:41;3.90;;;3.60;;
16634;SDS011;8431;52.458;9.998;2023-05-10T10:30:17;4.22;;;3.28;;
16634;SDS011;8431;52.458;9.998;2023-05-10T10:35:55;4.40;;;4.10;;
16634;SDS011;8431;52.458;9.998;2023-05-10T10:38:34;4.40;;;4.10;;
16634;SDS011;8431;52.458;9.998;2023-05-10T10:41:27;4.22;;;3.95;;
16634;SDS011;8431;52.458;9.998;2023-05-10T10:47:00;4.60;;;4.30;;
16634;SDS011;8431;52.458;9.998;2023-05-10T10:49:31;4.10;;;3.90;;
16634;SDS011;8431;52.458;9.998;2023-05-10T10:54:49;4.47;;;4.18;;
16634;SDS011;8431;52.458;9.998;2023-05-10T10:57:18;4.00;;;3.78;;
16634;SDS011;8431;52.458;9.998;2023-05-10T10:59:48;3.80;;;3.60;;
16634;SDS011;8431;52.458;9.998;2023-05-10T11:08:10;5.53;;;4.47;;
16634;SDS011;8431;52.458;9.998;2023-05-10T11:10:40;5.03;;;4.72;;
16634;SDS011;8431;52.458;9.998;2023-05-10T11:13:17;5.70;;;5.40;;
16634;SDS011;8431;52.458;9.998;2023-05-10T11:15:54;6.35;;;5.82;;
16634;SDS011;8431;52.458;9.998;2023-05-10T11:18:27;5.90;;;5.55;;
16634;SDS011;8431;52.458;9.998;2023-05-10T11:20:56;6.38;;;5.97;;
16634;SDS011;8431;52.458;9.998;2023-05-10T11:23:30;6.05;;;5.55;;
16634;SDS011;8431;52.458;9.998;2023-05-10T11:25:58;5.72;;;5.32;;
16634;SDS011;8431;52.458;9.998;2023-05-10T11:28:26;5.95;;;5.57;;
16634;SDS011;8431;52.458;9.998;2023-05-10T11:30:54;5.75;;;5.35;;
16634;SDS011;8431;52.458;9.998;2023-05-10T11:33:21;6.00;;;5.50;;
16634;SDS011;8431;52.458;9.998;2023-05-10T11:35:48;5.65;;;5.35;;
16634;SDS011;8431;52.458;9.998;2023-05-10T11:40:50;5.32;;;5.03;;
16634;SDS011;8431;52.458;9.998;2023-05-10T11:43:19;5.65;;;5.15;;
16634;SDS011;8431;52.458;9.998;2023-05-10T11:45:53;5.88;;;5.47;;
16634;SDS011;8431;52.458;9.998;2023-05-10T11:48:21;6.18;;;5.78;;
16634;SDS011;8431;52.458;9.998;2023-05-10T11:50:49;5.90;;;5.50;;
16634;SDS011;8431;52.458;9.998;2023-05-10T11:53:16;5.05;;;4.82;;
16634;SDS011;8431;52.458;9.998;2023-05-10T11:55:43;7.03;;;6.43;;
16634;SDS011;8431;52.458;9.998;2023-05-10T11:58:23;7.00;;;6.40;;
16634;SDS011;8431;52.458;9.998;2023-05-10T12:00:55;6.20;;;5.80;;
16634;SDS011;8431;52.458;9.998;2023-05-10T12:03:22;5.97;;;5.53;;
16634;SDS011;8431;52.458;9.998;2023-05-10T12:05:49;6.22;;;5.82;;
16634;SDS011;8431;52.458;9.998;2023-05-10T12:08:20;6.63;;;6.22;;
16634;SDS011;8431;52.458;9.998;2023-05-10T12:10:51;6.22;;;5.72;;
16634;SDS011;8431;52.458;9.998;2023-05-10T12:13:26;7.45;;;6.75;;
16634;SDS011;8431;52.458;9.998;2023-05-10T12:15:52;6.57;;;6.18;;
16634;SDS011;8431;52.458;9.998;2023-05-10T12:18:22;6.90;;;6.47;;
16634;SDS011;8431;52.458;9.998;2023-05-10T12:23:29;7.15;;;6.75;;
16634;SDS011;8431;52.458;9.998;2023-05-10T12:26:01;6.38;;;6.07;;
16634;SDS011;8431;52.458;9.998;2023-05-10T12:28:30;7.20;;;6.70;;
16634;SDS011;8431;52.458;9.998;2023-05-10T12:30:58;7.82;;;7.22;;
16634;SDS011;8431;52.458;9.998;2023-05-10T12:33:26;7.95;;;7.50;;
16634;SDS011;8431;52.458;9.998;2023-05-10T12:35:54;6.80;;;6.40;;
16634;SDS011;8431;52.458;9.998;2023-05-10T12:38:28;7.80;;;7.30;;
16634;SDS011;8431;52.458;9.998;2023-05-10T12:40:56;7.95;;;7.45;;
16634;SDS011;8431;52.458;9.998;2023-05-10T12:43:27;7.18;;;6.72;;
16634;SDS011;8431;52.458;9.998;2023-05-10T12:45:56;7.60;;;7.10;;
16634;SDS011;8431;52.458;9.998;2023-05-10T12:50:56;7.72;;;7.22;;
16634;SDS011;8431;52.458;9.998;2023-05-10T12:53:23;8.30;;;7.90;;
16634;SDS011;8431;52.458;9.998;2023-05-10T12:55:50;7.38;;;6.88;;
16634;SDS011;8431;52.458;9.998;2023-05-10T12:58:18;7.63;;;7.13;;
16634;SDS011;8431;52.458;9.998;2023-05-10T13:03:25;7.85;;;7.25;;
16634;SDS011;8431;52.458;9.998;2023-05-10T13:05:55;8.20;;;7.60;;
16634;SDS011;8431;52.458;9.998;2023-05-10T13:08:23;7.82;;;7.43;;
16634;SDS011;8431;52.458;9.998;2023-05-10T13:11:02;7.47;;;7.07;;
16634;SDS011;8431;52.458;9.998;2023-05-10T13:13:33;7.57;;;7.18;;
16634;SDS011;8431;52.458;9.998;2023-05-10T13:16:00;7.32;;;6.93;;
16634;SDS011;8431;52.458;9.998;2023-05-10T13:18:28;7.47;;;7.07;;
16634;SDS011;8431;52.458;9.998;2023-05-10T13:20:56;7.60;;;7.10;;
16634;SDS011;8431;52.458;9.998;2023-05-10T13:23:23;7.50;;;7.05;;
16634;SDS011;8431;52.458;9.998;2023-05-10T13:25:50;7.15;;;6.68;;
16634;SDS011;8431;52.458;9.998;2023-05-10T13:28:18;7.72;;;7.30;;
16634;SDS011;8431;52.458;9.998;2023-05-10T13:30:45;8.15;;;7.65;;
16634;SDS011;8431;52.458;9.998;2023-05-10T13:33:12;7.60;;;7.10;;
16634;SDS011;8431;52.458;9.998;2023-05-10T13:35:40;7.45;;;6.95;;
16634;SDS011;8431;52.458;9.998;2023-05-10T13:38:07;7.38;;;6.97;;
16634;SDS011;8431;52.458;9.998;2023-05-10T13:40:34;7.28;;;6.68;;
16634;SDS011;8431;52.458;9.998;2023-05-10T13:45:34;6.72;;;6.32;;
16634;SDS011;8431;52.458;9.998;2023-05-10T13:48:01;7.45;;;7.03;;
16634;SDS011;8431;52.458;9.998;2023-05-10T13:53:53;7.63;;;6.95;;
16634;SDS011;8431;52.458;9.998;2023-05-10T13:56:21;7.30;;;6.85;;
16634;SDS011;8431;52.458;9.998;2023-05-10T13:58:48;7.32;;;6.55;;
16634;SDS011;8431;52.458;9.998;2023-05-10T14:01:16;7.10;;;6.70;;
16634;SDS011;8431;52.458;9.998;2023-05-10T14:03:44;6.88;;;6.38;;
16634;SDS011;8431;52.458;9.998;2023-05-10T14:06:11;7.40;;;6.90;;
16634;SDS011;8431;52.458;9.998;2023-05-10T14:11:12;7.18;;;6.55;;
16634;SDS011;8431;52.458;9.998;2023-05-10T14:13:39;7.53;;;7.03;;
16634;SDS011;8431;52.458;9.998;2023-05-10T14:16:07;7.10;;;6.45;;
16634;SDS011;8431;52.458;9.998;2023-05-10T14:18:34;6.85;;;6.45;;
16634;SDS011;8431;52.458;9.998;2023-05-10T14:21:02;6.85;;;6.35;;
16634;SDS011;8431;52.458;9.998;2023-05-10T14:23:33;7.18;;;6.68;;
16634;SDS011;8431;52.458;9.998;2023-05-10T14:26:00;7.38;;;6.88;;
16634;SDS011;8431;52.458;9.998;2023-05-10T14:28:29;8.57;;;7.82;;
16634;SDS011;8431;52.458;9.998;2023-05-10T14:30:56;9.10;;;7.65;;
16634;SDS011;8431;52.458;9.998;2023-05-10T14:33:23;7.80;;;7.07;;
16634;SDS011;8431;52.458;9.998;2023-05-10T14:35:50;7.93;;;7.22;;
16634;SDS011;8431;52.458;9.998;2023-05-10T14:38:17;7.05;;;5.97;;
16634;SDS011;8431;52.458;9.998;2023-05-10T14:40:44;7.25;;;6.75;;
16634;SDS011;8431;52.458;9.998;2023-05-10T14:43:12;7.70;;;7.00;;
16634;SDS011;8431;52.458;9.998;2023-05-10T14:45:40;6.70;;;6.10;;
16634;SDS011;8431;52.458;9.998;2023-05-10T14:48:07;8.35;;;7.30;;
16634;SDS011;8431;52.458;9.998;2023-05-10T14:50:37;7.28;;;6.63;;
16634;SDS011;8431;52.458;9.998;2023-05-10T14:53:04;6.72;;;6.13;;
16634;SDS011;8431;52.458;9.998;2023-05-10T14:55:31;7.25;;;6.63;;
16634;SDS011;8431;52.458;9.998;2023-05-10T14:57:59;6.63;;;5.97;;
16634;SDS011;8431;52.458;9.998;2023-05-10T15:00:28;6.18;;;5.57;;
16634;SDS011;8431;52.458;9.998;2023-05-10T15:02:59;5.78;;;5.28;;
16634;SDS011;8431;52.458;9.998;2023-05-10T15:05:27;5.30;;;4.90;;
16634;SDS011;8431;52.458;9.998;2023-05-10T15:08:08;5.10;;;4.70;;
16634;SDS011;8431;52.458;9.998;2023-05-10T15:10:37;5.35;;;4.95;;
16634;SDS011;8431;52.458;9.998;2023-05-10T15:13:04;6.30;;;4.90;;
16634;SDS011;8431;52.458;9.998;2023-05-10T15:18:05;10.15;;;9.07;;
16634;SDS011;8431;52.458;9.998;2023-05-10T15:23:04;7.20;;;5.28;;
16634;SDS011;8431;52.458;9.998;2023-05-10T15:25:31;6.25;;;5.50;;
16634;SDS011;8431;52.458;9.998;2023-05-10T15:28:00;6.65;;;6.05;;
16634;SDS011;8431;52.458;9.998;2023-05-10T15:30:27;5.72;;;5.22;;
16634;SDS011;8431;52.458;9.998;2023-05-10T15:32:54;5.40;;;5.00;;
16634;SDS011;8431;52.458;9.998;2023-05-10T15:35:23;4.80;;;4.30;;
16634;SDS011;8431;52.458;9.998;2023-05-10T15:37:54;7.10;;;6.50;;
16634;SDS011;8431;52.458;9.998;2023-05-10T15:40:21;6.50;;;6.00;;
16634;SDS011;8431;52.458;9.998;2023-05-10T15:45:19;8.27;;;4.45;;
16634;SDS011;8431;52.458;9.998;2023-05-10T15:47:46;5.05;;;4.65;;
16634;SDS011;8431;52.458;9.998;2023-05-10T15:50:15;4.68;;;4.35;;
16634;SDS011;8431;52.458;9.998;2023-05-10T15:52:43;4.60;;;4.20;;
16634;SDS011;8431;52.458;9.998;2023-05-10T15:55:10;7.55;;;4.72;;
16634;SDS011;8431;52.458;9.998;2023-05-10T15:57:38;5.05;;;4.65;;
16634;SDS011;8431;52.458;9.998;2023-05-10T16:00:06;5.15;;;4.72;;
16634;SDS011;8431;52.458;9.998;2023-05-10T16:02:35;4.78;;;4.47;;
16634;SDS011;8431;52.458;9.998;2023-05-10T16:05:02;6.30;;;4.70;;